createdAt,value
2023-05-07T00:01:59.812Z,13.63
2023-05-07T00:04:26.350Z,13.28
2023-05-07T00:06:52.938Z,13.13
2023-05-07T00:09:19.301Z,13.14
2023-05-07T00:11:45.597Z,13.20
2023-05-07T00:14:11.894Z,13.11
2023-05-07T00:16:38.376Z,13.06
2023-05-07T00:19:04.856Z,13.01
2023-05-07T00:21:32.821Z,12.93
2023-05-07T00:23:59.254Z,12.82
2023-05-07T00:26:25.788Z,12.80
2023-05-07T00:28:52.171Z,12.84
2023-05-07T00:31:18.761Z,13.00
2023-05-07T00:33:45.156Z,13.53
2023-05-07T00:36:11.592Z,13.19
2023-05-07T00:38:37.985Z,12.80
2023-05-07T00:41:04.400Z,12.79
2023-05-07T00:43:30.746Z,12.73
2023-05-07T00:45:57.517Z,12.72
2023-05-07T00:48:24.077Z,12.65
2023-05-07T00:50:50.490Z,12.65
2023-05-07T00:53:16.946Z,12.72
2023-05-07T00:55:43.364Z,13.22
2023-05-07T00:58:09.796Z,12.90
2023-05-07T01:00:36.206Z,13.00
2023-05-07T01:03:03.019Z,12.81
2023-05-07T01:05:30.283Z,13.01
2023-05-07T01:07:58.743Z,12.99
2023-05-07T01:10:25.791Z,12.97
2023-05-07T01:12:53.181Z,12.77
2023-05-07T01:15:19.683Z,12.84
2023-05-07T01:17:46.331Z,12.93
2023-05-07T01:20:13.106Z,12.97
2023-05-07T01:22:40.822Z,12.88
2023-05-07T01:25:08.437Z,12.56
2023-05-07T01:27:35.394Z,12.57
2023-05-07T01:30:02.133Z,12.57
2023-05-07T01:32:39.976Z,12.56
2023-05-07T01:35:10.772Z,12.55
2023-05-07T01:37:37.866Z,12.59
2023-05-07T01:40:04.838Z,12.79
2023-05-07T01:42:31.920Z,12.83
2023-05-07T01:44:58.279Z,12.69
2023-05-07T01:47:25.947Z,12.57
2023-05-07T01:49:52.780Z,12.61
2023-05-07T01:52:19.248Z,12.66
2023-05-07T01:54:45.600Z,12.74
2023-05-07T01:57:11.911Z,12.46
2023-05-07T01:59:38.340Z,12.23
2023-05-07T02:02:04.960Z,12.35
2023-05-07T02:04:38.272Z,12.27
2023-05-07T02:07:04.838Z,12.18
2023-05-07T02:09:31.134Z,12.23
2023-05-07T02:11:57.550Z,12.21
2023-05-07T02:14:23.940Z,12.07
2023-05-07T02:16:50.464Z,12.12
2023-05-07T02:19:17.429Z,12.08
2023-05-07T02:21:43.835Z,12.07
2023-05-07T02:24:10.244Z,12.23
2023-05-07T02:26:36.692Z,12.13
2023-05-07T02:29:03.093Z,12.04
2023-05-07T02:31:29.559Z,12.06
2023-05-07T02:33:55.991Z,12.06
2023-05-07T02:36:22.380Z,12.21
2023-05-07T02:38:48.749Z,11.99
2023-05-07T02:41:15.290Z,11.89
2023-05-07T02:43:41.681Z,12.04
2023-05-07T02:46:10.172Z,12.23
2023-05-07T02:48:36.732Z,12.28
2023-05-07T02:51:03.723Z,12.17
2023-05-07T02:53:30.801Z,12.25
2023-05-07T02:55:58.914Z,12.14
2023-05-07T02:58:25.748Z,12.07
2023-05-07T03:00:52.700Z,12.14
2023-05-07T03:03:19.461Z,12.17
2023-05-07T03:05:45.761Z,12.09
2023-05-07T03:08:12.153Z,12.12
2023-05-07T03:10:38.755Z,12.00
2023-05-07T03:13:05.471Z,12.02
2023-05-07T03:15:32.022Z,11.97
2023-05-07T03:17:58.390Z,11.96
2023-05-07T03:20:24.787Z,12.03
2023-05-07T03:22:51.388Z,11.92
2023-05-07T03:25:17.751Z,12.01
2023-05-07T03:27:44.414Z,11.94
2023-05-07T03:30:12.001Z,12.28
2023-05-07T03:32:38.594Z,12.18
2023-05-07T03:35:05.656Z,12.32
2023-05-07T03:37:32.338Z,12.27
2023-05-07T03:39:58.681Z,12.30
2023-05-07T03:42:25.614Z,12.17
2023-05-07T03:44:52.160Z,12.04
2023-05-07T03:47:18.477Z,12.03
2023-05-07T03:49:45.205Z,12.02
2023-05-07T03:52:11.574Z,12.18
2023-05-07T03:54:38.289Z,12.05
2023-05-07T03:57:04.701Z,12.20
2023-05-07T03:59:31.133Z,12.10
2023-05-07T04:01:57.648Z,12.08
2023-05-07T04:04:24.499Z,11.96
2023-05-07T04:06:50.902Z,12.11
2023-05-07T04:09:17.242Z,12.20
2023-05-07T04:11:43.924Z,11.97
2023-05-07T04:14:10.238Z,12.22
2023-05-07T04:16:36.768Z,12.07
2023-05-07T04:19:03.471Z,11.94
2023-05-07T04:21:29.769Z,11.97
2023-05-07T04:23:57.043Z,11.95
2023-05-07T04:26:23.359Z,11.96
2023-05-07T04:28:49.671Z,11.81
2023-05-07T04:31:16.914Z,11.89
2023-05-07T04:33:43.230Z,11.87
2023-05-07T04:36:09.696Z,12.10
2023-05-07T04:38:36.103Z,12.00
2023-05-07T04:41:07.208Z,12.07
2023-05-07T04:43:33.705Z,11.98
2023-05-07T04:46:00.191Z,11.98
2023-05-07T04:48:26.549Z,12.09
2023-05-07T04:50:53.172Z,12.06
2023-05-07T04:53:21.109Z,11.96
2023-05-07T04:55:47.671Z,11.91
2023-05-07T04:58:14.382Z,11.88
2023-05-07T05:00:40.953Z,12.01
2023-05-07T05:03:08.264Z,12.00
2023-05-07T05:05:34.705Z,12.11
2023-05-07T05:08:01.146Z,11.96
2023-05-07T05:10:27.702Z,12.08
2023-05-07T05:12:54.154Z,12.25
2023-05-07T05:15:20.616Z,12.27
2023-05-07T05:17:47.125Z,12.04
2023-05-07T05:20:13.646Z,12.37
2023-05-07T05:22:40.070Z,12.19
2023-05-07T05:25:07.044Z,12.14
2023-05-07T05:27:33.352Z,11.98
2023-05-07T05:30:00.011Z,11.87
2023-05-07T05:32:26.375Z,11.97
2023-05-07T05:34:52.778Z,11.95
2023-05-07T05:37:19.529Z,12.18
2023-05-07T05:39:45.906Z,12.22
2023-05-07T05:42:12.242Z,11.96
2023-05-07T05:44:38.628Z,11.86
2023-05-07T05:47:04.988Z,11.87
2023-05-07T05:49:31.348Z,11.94
2023-05-07T05:51:57.731Z,12.17
2023-05-07T05:54:24.169Z,12.10
2023-05-07T05:56:50.965Z,11.95
2023-05-07T05:59:17.560Z,11.97
2023-05-07T06:01:43.911Z,11.96
2023-05-07T06:04:10.245Z,11.85
2023-05-07T06:06:36.640Z,11.84
2023-05-07T06:09:03.160Z,11.98
2023-05-07T06:11:29.821Z,11.93
2023-05-07T06:13:56.219Z,11.93
2023-05-07T06:16:22.555Z,12.00
2023-05-07T06:18:48.914Z,12.13
2023-05-07T06:21:15.542Z,12.12
2023-05-07T06:23:42.374Z,12.00
2023-05-07T06:26:09.092Z,11.87
2023-05-07T06:28:35.510Z,11.87
2023-05-07T06:31:19.780Z,11.88
2023-05-07T06:33:46.289Z,12.02
2023-05-07T06:36:13.049Z,11.90
2023-05-07T06:38:39.459Z,12.02
2023-05-07T06:41:07.317Z,11.95
2023-05-07T06:43:34.114Z,11.96
2023-05-07T06:46:00.868Z,11.76
2023-05-07T06:48:27.332Z,11.75
2023-05-07T06:50:53.712Z,11.73
2023-05-07T06:53:20.010Z,11.94
2023-05-07T06:55:46.526Z,11.67
2023-05-07T06:58:12.934Z,11.55
2023-05-07T07:00:39.333Z,11.72
2023-05-07T07:03:05.671Z,11.79
2023-05-07T07:05:32.198Z,11.87
2023-05-07T07:07:58.552Z,11.81
2023-05-07T07:10:25.142Z,11.74
2023-05-07T07:12:51.736Z,11.66
2023-05-07T07:15:18.170Z,11.74
2023-05-07T07:17:44.509Z,11.73
2023-05-07T07:20:12.236Z,11.77
2023-05-07T07:22:38.861Z,11.85
2023-05-07T07:25:05.551Z,11.76
2023-05-07T07:27:31.980Z,11.77
2023-05-07T07:29:58.564Z,11.79
2023-05-07T07:32:25.021Z,12.04
2023-05-07T07:34:51.385Z,12.02
2023-05-07T07:37:18.057Z,11.89
2023-05-07T07:39:44.417Z,11.85
2023-05-07T07:42:10.755Z,11.85
2023-05-07T07:44:37.192Z,11.99
2023-05-07T07:47:03.557Z,12.09
2023-05-07T07:49:29.999Z,12.10
2023-05-07T07:51:56.357Z,12.03
2023-05-07T07:54:22.739Z,12.00
2023-05-07T07:56:49.157Z,12.07
2023-05-07T07:59:15.517Z,12.02
2023-05-07T08:01:41.951Z,12.05
2023-05-07T08:04:08.702Z,12.15
2023-05-07T08:06:35.525Z,12.08
2023-05-07T08:09:02.071Z,12.07
2023-05-07T08:11:28.649Z,12.17
2023-05-07T08:13:55.873Z,12.17
2023-05-07T08:16:24.081Z,12.16
2023-05-07T08:18:50.699Z,12.21
2023-05-07T08:21:17.005Z,12.33
2023-05-07T08:23:43.375Z,12.27
2023-05-07T08:26:10.270Z,12.29
2023-05-07T08:28:36.846Z,12.28
2023-05-07T08:31:03.368Z,12.09
2023-05-07T08:33:29.705Z,12.10
2023-05-07T08:35:56.125Z,12.05
2023-05-07T08:38:22.585Z,11.98
2023-05-07T08:40:49.045Z,12.03
2023-05-07T08:43:15.630Z,12.29
2023-05-07T08:45:42.580Z,12.23
2023-05-07T08:48:17.608Z,12.43
2023-05-07T08:50:44.038Z,12.52
2023-05-07T08:53:10.711Z,12.56
2023-05-07T08:55:37.184Z,12.23
2023-05-07T08:58:03.918Z,12.39
2023-05-07T09:00:30.306Z,12.11
2023-05-07T09:02:56.967Z,12.09
2023-05-07T09:05:23.451Z,12.34
2023-05-07T09:07:50.281Z,12.27
2023-05-07T09:10:17.656Z,12.20
2023-05-07T09:12:44.438Z,12.47
2023-05-07T09:15:11.189Z,12.52
2023-05-07T09:17:37.844Z,12.34
2023-05-07T09:20:06.109Z,12.22
2023-05-07T09:22:34.239Z,12.25
2023-05-07T09:25:00.746Z,12.33
2023-05-07T09:27:27.158Z,12.20
2023-05-07T09:29:53.465Z,12.39
2023-05-07T09:32:19.975Z,12.30
2023-05-07T09:34:46.462Z,12.69
2023-05-07T09:37:14.018Z,12.82
2023-05-07T09:39:46.348Z,12.49
2023-05-07T09:42:13.304Z,12.33
2023-05-07T09:44:39.974Z,12.48
2023-05-07T09:47:08.284Z,12.69
2023-05-07T09:49:37.259Z,12.89
2023-05-07T09:52:05.893Z,12.91
2023-05-07T09:54:32.383Z,13.11
2023-05-07T09:56:59.681Z,12.82
2023-05-07T09:59:29.757Z,12.93
2023-05-07T10:01:59.568Z,12.95
2023-05-07T10:04:27.179Z,13.05
2023-05-07T10:06:55.028Z,12.87
2023-05-07T10:09:22.378Z,13.03
2023-05-07T10:11:50.541Z,13.27
2023-05-07T10:14:18.366Z,13.06
2023-05-07T10:16:45.468Z,13.15
2023-05-07T10:19:11.976Z,13.08
2023-05-07T10:22:05.801Z,13.26
2023-05-07T10:24:36.676Z,13.40
2023-05-07T10:27:06.790Z,13.30
2023-05-07T10:30:10.819Z,13.66
2023-05-07T10:32:41.743Z,13.46
2023-05-07T10:35:15.306Z,13.34
2023-05-07T10:37:42.782Z,13.29
2023-05-07T10:40:10.908Z,13.31
2023-05-07T10:42:37.477Z,13.87
2023-05-07T10:45:14.553Z,13.50
2023-05-07T10:48:21.479Z,13.61
2023-05-07T10:51:22.432Z,14.10
2023-05-07T10:53:48.980Z,13.88
2023-05-07T10:56:18.609Z,13.78
2023-05-07T10:58:45.299Z,13.65
2023-05-07T11:01:11.888Z,13.89
2023-05-07T11:04:18.455Z,14.17
2023-05-07T11:07:07.853Z,13.89
2023-05-07T11:09:52.668Z,14.02
2023-05-07T11:12:37.392Z,13.93
2023-05-07T11:15:08.310Z,13.90
2023-05-07T11:17:37.388Z,13.80
2023-05-07T11:20:04.371Z,14.19
2023-05-07T11:22:33.676Z,14.15
2023-05-07T11:25:00.981Z,14.26
2023-05-07T11:27:28.079Z,14.58
2023-05-07T11:29:54.412Z,14.46
2023-05-07T11:32:24.721Z,14.41
2023-05-07T11:35:00.966Z,14.52
2023-05-07T11:37:28.763Z,14.48
2023-05-07T11:40:09.461Z,14.51
2023-05-07T11:42:38.462Z,14.76
2023-05-07T11:45:06.704Z,14.50
2023-05-07T11:47:34.579Z,15.10
2023-05-07T11:50:07.006Z,14.85
2023-05-07T11:52:33.410Z,14.78
2023-05-07T11:55:01.044Z,15.08
2023-05-07T11:57:28.816Z,15.08
2023-05-07T11:59:59.160Z,15.11
2023-05-07T12:02:26.543Z,14.92
2023-05-07T12:04:53.772Z,14.83
2023-05-07T12:07:20.267Z,15.18
2023-05-07T12:09:46.964Z,15.17
2023-05-07T12:12:13.282Z,15.03
2023-05-07T12:14:44.058Z,15.20
2023-05-07T12:17:11.820Z,15.28
2023-05-07T12:19:39.770Z,15.03
2023-05-07T12:22:08.878Z,15.12
2023-05-07T12:24:49.924Z,15.05
2023-05-07T12:27:17.546Z,15.03
2023-05-07T12:29:51.495Z,14.92
2023-05-07T12:32:19.678Z,15.12
2023-05-07T12:34:47.059Z,15.17
2023-05-07T12:37:14.024Z,15.42
2023-05-07T12:39:50.637Z,15.62
2023-05-07T12:42:20.659Z,15.11
2023-05-07T12:44:47.464Z,15.18
2023-05-07T12:47:13.847Z,15.26
2023-05-07T12:49:40.324Z,15.42
2023-05-07T12:52:07.174Z,15.41
2023-05-07T12:54:36.003Z,15.54
2023-05-07T12:57:11.629Z,15.49
2023-05-07T12:59:42.397Z,15.64
2023-05-07T13:02:09.885Z,15.84
2023-05-07T13:04:36.618Z,15.66
2023-05-07T13:07:03.477Z,15.86
2023-05-07T13:09:30.042Z,15.90
2023-05-07T13:11:56.628Z,16.06
2023-05-07T13:14:22.961Z,16.09
2023-05-07T13:16:49.505Z,15.66
2023-05-07T13:19:16.040Z,15.90
2023-05-07T13:21:42.488Z,15.82
2023-05-07T13:24:09.085Z,15.69
2023-05-07T13:26:35.915Z,15.78
2023-05-07T13:29:02.328Z,15.83
2023-05-07T13:31:28.818Z,16.09
2023-05-07T13:33:55.277Z,15.81
2023-05-07T13:36:21.606Z,15.87
2023-05-07T13:38:47.933Z,15.95
2023-05-07T13:41:14.360Z,15.94
2023-05-07T13:43:40.812Z,15.72
2023-05-07T13:46:07.458Z,15.83
2023-05-07T13:48:33.904Z,15.75
2023-05-07T13:51:00.211Z,15.86
2023-05-07T13:53:26.523Z,15.61
2023-05-07T13:55:52.919Z,15.83
2023-05-07T13:58:19.242Z,15.82
2023-05-07T14:00:45.768Z,15.90
2023-05-07T14:03:12.674Z,15.99
2023-05-07T14:05:39.112Z,15.76
2023-05-07T14:08:05.634Z,15.85
2023-05-07T14:10:32.024Z,15.57
2023-05-07T14:12:58.437Z,15.53
2023-05-07T14:15:24.892Z,16.06
2023-05-07T14:17:51.228Z,16.04
2023-05-07T14:20:17.718Z,15.81
2023-05-07T14:22:44.418Z,15.99
2023-05-07T14:25:10.815Z,15.76
2023-05-07T14:27:37.586Z,15.84
2023-05-07T14:30:04.990Z,15.85
2023-05-07T14:32:31.535Z,16.00
2023-05-07T14:34:58.020Z,16.17
2023-05-07T14:37:24.702Z,15.99
2023-05-07T14:39:51.275Z,15.90
2023-05-07T14:42:18.026Z,15.95
2023-05-07T14:44:44.515Z,16.07
2023-05-07T14:47:10.869Z,16.16
2023-05-07T14:49:37.262Z,16.25
2023-05-07T14:52:03.853Z,16.32
2023-05-07T14:54:30.423Z,16.76
2023-05-07T14:56:56.966Z,16.50
2023-05-07T14:59:23.436Z,16.58
2023-05-07T15:01:49.924Z,16.67
2023-05-07T15:04:16.416Z,16.91
2023-05-07T15:06:42.788Z,16.55
2023-05-07T15:09:09.194Z,16.46
2023-05-07T15:11:35.864Z,16.62
2023-05-07T15:14:02.435Z,16.61
2023-05-07T15:16:29.009Z,16.63
2023-05-07T15:18:55.486Z,16.49
2023-05-07T15:21:22.226Z,16.52
2023-05-07T15:23:48.750Z,16.64
2023-05-07T15:26:15.121Z,16.69
2023-05-07T15:28:41.959Z,16.82
2023-05-07T15:31:08.349Z,16.58
2023-05-07T15:33:34.914Z,16.84
2023-05-07T15:36:01.766Z,16.72
2023-05-07T15:38:28.107Z,16.89
2023-05-07T15:40:54.525Z,16.73
2023-05-07T15:43:21.200Z,17.01
2023-05-07T15:45:47.768Z,16.86
2023-05-07T15:48:14.207Z,16.73
2023-05-07T15:50:40.627Z,16.82
2023-05-07T15:53:07.280Z,16.66
2023-05-07T15:55:34.146Z,16.83
2023-05-07T15:58:00.894Z,16.69
2023-05-07T16:00:27.919Z,16.75
2023-05-07T16:02:55.021Z,16.56
2023-05-07T16:05:21.568Z,16.89
2023-05-07T16:07:47.883Z,16.86
2023-05-07T16:10:14.957Z,16.69
2023-05-07T16:12:41.590Z,16.65
2023-05-07T16:15:08.451Z,16.77
2023-05-07T16:17:34.863Z,16.73
2023-05-07T16:20:01.200Z,16.50
2023-05-07T16:22:27.788Z,16.31
2023-05-07T16:24:54.125Z,16.48
2023-05-07T16:27:21.713Z,16.39
2023-05-07T16:29:48.136Z,16.32
2023-05-07T16:32:14.594Z,16.43
2023-05-07T16:34:40.903Z,16.43
2023-05-07T16:37:07.228Z,16.66
2023-05-07T16:39:33.835Z,17.06
2023-05-07T16:42:00.279Z,16.88
2023-05-07T16:44:26.656Z,17.01
2023-05-07T16:46:52.965Z,16.81
2023-05-07T16:49:19.755Z,17.06
2023-05-07T16:51:46.448Z,16.82
2023-05-07T16:54:12.961Z,16.94
2023-05-07T16:56:39.363Z,16.73
2023-05-07T16:59:05.926Z,16.78
2023-05-07T17:01:32.525Z,17.07
2023-05-07T17:03:59.446Z,16.87
2023-05-07T17:06:26.502Z,16.54
2023-05-07T17:08:52.902Z,16.43
2023-05-07T17:11:19.618Z,16.37
2023-05-07T17:13:46.091Z,16.19
2023-05-07T17:16:12.442Z,15.94
2023-05-07T17:18:38.828Z,15.81
2023-05-07T17:21:05.259Z,15.65
2023-05-07T17:23:31.643Z,15.64
2023-05-07T17:25:57.985Z,15.78
2023-05-07T17:28:24.510Z,15.54
2023-05-07T17:30:50.831Z,15.42
2023-05-07T17:33:21.637Z,15.53
2023-05-07T17:35:48.734Z,15.14
2023-05-07T17:38:15.063Z,14.95
2023-05-07T17:40:41.524Z,14.68
2023-05-07T17:43:07.864Z,14.78
2023-05-07T17:45:34.370Z,14.66
2023-05-07T17:48:00.769Z,14.81
2023-05-07T17:50:27.334Z,14.92
2023-05-07T17:52:54.285Z,14.77
2023-05-07T17:55:20.736Z,14.74
2023-05-07T17:57:47.057Z,14.64
2023-05-07T18:00:14.518Z,14.78
2023-05-07T18:02:41.154Z,14.63
2023-05-07T18:05:09.225Z,14.36
2023-05-07T18:07:35.849Z,14.34
2023-05-07T18:10:02.452Z,14.38
2023-05-07T18:12:28.897Z,14.18
2023-05-07T18:14:55.473Z,14.14
2023-05-07T18:17:21.793Z,14.10
2023-05-07T18:19:49.036Z,14.03
2023-05-07T18:22:15.383Z,13.97
2023-05-07T18:24:41.824Z,13.76
2023-05-07T18:27:08.317Z,13.82
2023-05-07T18:29:34.764Z,13.75
2023-05-07T18:32:01.177Z,13.79
2023-05-07T18:34:27.720Z,13.80
2023-05-07T18:36:54.029Z,13.59
2023-05-07T18:39:20.410Z,13.57
2023-05-07T18:41:46.713Z,13.76
2023-05-07T18:44:13.088Z,13.52
2023-05-07T18:46:39.822Z,13.45
2023-05-07T18:49:06.255Z,13.23
2023-05-07T18:51:32.672Z,13.18
2023-05-07T18:53:59.227Z,13.18
2023-05-07T18:56:25.597Z,13.16
2023-05-07T18:58:52.049Z,13.13
2023-05-07T19:01:18.452Z,13.11
2023-05-07T19:03:45.045Z,13.21
2023-05-07T19:06:11.775Z,13.01
2023-05-07T19:08:38.858Z,13.13
2023-05-07T19:11:05.334Z,13.02
2023-05-07T19:13:31.908Z,13.03
2023-05-07T19:15:58.297Z,12.97
2023-05-07T19:18:24.813Z,12.95
2023-05-07T19:20:53.552Z,12.82
2023-05-07T19:23:21.801Z,12.76
2023-05-07T19:25:48.142Z,12.78
2023-05-07T19:28:14.732Z,12.61
2023-05-07T19:30:41.117Z,12.68
2023-05-07T19:33:07.783Z,12.72
2023-05-07T19:35:34.602Z,12.64
2023-05-07T19:38:01.490Z,12.58
2023-05-07T19:40:28.043Z,12.58
2023-05-07T19:42:54.440Z,12.54
2023-05-07T19:45:20.849Z,12.48
2023-05-07T19:47:50.323Z,12.46
2023-05-07T19:50:17.025Z,12.58
2023-05-07T19:52:43.749Z,12.41
2023-05-07T19:55:10.416Z,12.34
2023-05-07T19:57:37.324Z,12.36
2023-05-07T20:00:04.809Z,12.35
2023-05-07T20:02:31.629Z,12.25
2023-05-07T20:04:58.080Z,12.22
2023-05-07T20:07:24.512Z,11.98
2023-05-07T20:09:50.828Z,12.14
2023-05-07T20:12:17.611Z,12.16
2023-05-07T20:14:43.980Z,12.17
2023-05-07T20:17:10.381Z,12.04
2023-05-07T20:19:36.686Z,12.09
2023-05-07T20:22:03.364Z,11.94
2023-05-07T20:24:29.714Z,11.90
2023-05-07T20:26:56.116Z,12.09
2023-05-07T20:29:22.905Z,12.05
2023-05-07T20:31:49.389Z,11.92
2023-05-07T20:34:15.791Z,11.87
2023-05-07T20:36:42.368Z,11.83
2023-05-07T20:39:08.794Z,11.86
2023-05-07T20:41:35.351Z,11.79
2023-05-07T20:44:02.155Z,11.69
2023-05-07T20:46:28.558Z,11.77
2023-05-07T20:48:55.088Z,11.74
2023-05-07T20:51:21.402Z,11.70
2023-05-07T20:53:48.126Z,11.63
2023-05-07T20:56:14.805Z,11.65
2023-05-07T20:58:41.167Z,11.72
2023-05-07T21:01:07.611Z,11.61
2023-05-07T21:03:34.048Z,11.56
2023-05-07T21:06:00.452Z,11.51
2023-05-07T21:08:27.181Z,11.50
2023-05-07T21:10:53.740Z,11.49
2023-05-07T21:13:20.567Z,11.43
2023-05-07T21:15:47.231Z,11.74
2023-05-07T21:18:13.720Z,11.69
2023-05-07T21:20:40.503Z,11.69
2023-05-07T21:23:06.926Z,11.56
2023-05-07T21:25:33.648Z,11.69
2023-05-07T21:28:00.158Z,11.53
2023-05-07T21:30:26.888Z,11.52
2023-05-07T21:32:53.384Z,11.59
2023-05-07T21:35:19.753Z,11.58
2023-05-07T21:37:46.171Z,11.48
2023-05-07T21:40:12.962Z,11.66
2023-05-07T21:42:39.889Z,11.47
2023-05-07T21:45:06.521Z,11.44
2023-05-07T21:47:32.892Z,11.47
2023-05-07T21:49:59.391Z,11.32
2023-05-07T21:52:25.729Z,11.33
2023-05-07T21:54:53.451Z,11.72
2023-05-07T21:57:20.126Z,11.72
2023-05-07T21:59:46.445Z,11.45
2023-05-07T22:02:12.899Z,11.25
2023-05-07T22:04:39.304Z,11.49
2023-05-07T22:07:05.999Z,11.46
2023-05-07T22:09:32.418Z,11.23
2023-05-07T22:11:58.789Z,11.26
2023-05-07T22:14:25.222Z,11.34
2023-05-07T22:16:51.719Z,11.33
2023-05-07T22:19:18.230Z,11.22
2023-05-07T22:21:44.610Z,11.15
2023-05-07T22:24:11.277Z,11.12
2023-05-07T22:26:37.871Z,11.27
2023-05-07T22:29:04.376Z,11.27
2023-05-07T22:31:30.744Z,11.17
2023-05-07T22:33:57.111Z,11.15
2023-05-07T22:36:23.504Z,11.09
2023-05-07T22:38:50.147Z,11.05
2023-05-07T22:41:16.577Z,10.91
2023-05-07T22:43:42.963Z,10.95
2023-05-07T22:46:09.418Z,10.94
2023-05-07T22:48:35.800Z,10.91
2023-05-07T22:51:02.203Z,10.88
2023-05-07T22:53:28.500Z,10.90
2023-05-07T22:55:54.924Z,10.91
2023-05-07T22:58:21.366Z,10.90
2023-05-07T23:00:47.923Z,10.90
2023-05-07T23:03:14.674Z,10.79
2023-05-07T23:05:41.068Z,10.86
2023-05-07T23:08:07.517Z,11.03
2023-05-07T23:10:34.193Z,10.99
2023-05-07T23:13:01.324Z,11.07
2023-05-07T23:15:27.761Z,11.09
2023-05-07T23:17:54.263Z,11.00
2023-05-07T23:20:20.699Z,10.82
2023-05-07T23:22:47.004Z,10.84
2023-05-07T23:25:13.333Z,10.81
2023-05-07T23:27:39.845Z,10.64
2023-05-07T23:30:07.047Z,10.75
2023-05-07T23:32:33.410Z,10.72
2023-05-07T23:34:59.985Z,10.73
2023-05-07T23:37:26.428Z,10.79
2023-05-07T23:39:54.008Z,10.74
2023-05-07T23:42:20.457Z,10.68
2023-05-07T23:44:47.048Z,10.62
2023-05-07T23:47:13.650Z,10.46
2023-05-07T23:49:40.036Z,10.36
2023-05-07T23:52:06.593Z,10.39
2023-05-07T23:54:32.924Z,10.42
2023-05-07T23:56:59.698Z,10.45
2023-05-07T23:59:26.017Z,10.32
